This is the latest recevied weather packets stored in our database for station/object EA2FBA-10. If no packets are shown the sender has not sent any weather packets the latest 10 day(s).
| Time | Temp. | Humidity | Pressure | Rain* | Wind** | Luminosity | Snow |
|---|---|---|---|---|---|---|---|
| 1787585067 | 26.11° C | 30% | 946.7 hPa | - | - | - | - |
| 1787585058 | 26.11° C | 30% | 946.7 hPa | - | - | - | - |
| 1787584167 | 26.11° C | 30% | 946.9 hPa | - | - | - | - |
| 1787584158 | 26.11° C | 30% | 946.9 hPa | - | - | - | - |
| 1787583267 | 26.67° C | 29% | 947.1 hPa | - | - | - | - |
| 1787583258 | 26.67° C | 29% | 947.1 hPa | - | - | - | - |
| 1787582367 | 26.67° C | 28% | 947.2 hPa | - | - | - | - |
| 1787582358 | 26.67° C | 28% | 947.2 hPa | - | - | - | - |
| 1787581467 | 26.11° C | 29% | 947.4 hPa | - | - | - | - |
| 1787581457 | 26.11° C | 29% | 947.4 hPa | - | - | - | - |
| 1787580567 | 26.67° C | 29% | 947.5 hPa | - | - | - | - |
| 1787580557 | 26.67° C | 29% | 947.5 hPa | - | - | - | - |
| 1787579667 | 26.11° C | 30% | 947.8 hPa | - | - | - | - |
| 1787579657 | 26.11° C | 30% | 947.8 hPa | - | - | - | - |
| 1787578766 | 27.22° C | 28% | 947.9 hPa | - | - | - | - |
| 1787578757 | 27.22° C | 28% | 947.9 hPa | - | - | - | - |
| 1787577866 | 27.22° C | 30% | 948.3 hPa | - | - | - | - |
| 1787577857 | 27.22° C | 30% | 948.3 hPa | - | - | - | - |
| 1787576966 | 26.67° C | 31% | 948.3 hPa | - | - | - | - |
| 1787576957 | 26.67° C | 31% | 948.3 hPa | - | - | - | - |
| 1787576066 | 27.22° C | 31% | 948.3 hPa | - | - | - | - |
| 1787576057 | 27.22° C | 31% | 948.3 hPa | - | - | - | - |
| 1787575166 | 26.67° C | 31% | 948.2 hPa | - | - | - | - |
| 1787575157 | 26.67° C | 31% | 948.2 hPa | - | - | - | - |
| 1787574266 | 26.67° C | 28% | 948.2 hPa | - | - | - | - |
* Rain since midnight (hover to see other rain measurements)
** Current wind speed in m/s (hover to see current wind gust speed)